Aviation Digital Data Service (ADDS)

Output produced by METARs form (1716 UTC 05 May 2015)
found at http://www.aviationweather.gov/adds/metars/
 
KPHL 051519Z 0515/0618 25008KT P6SM FEW070 BKN100 
     FM051900 27008KT P6SM BKN050 
     TEMPO 0520/0524 6SM -SHRA 
     FM060000 VRB04KT P6SM -SHRA OVC050 
     FM060900 02004KT P6SM OVC050 
     FM061500 05006KT P6SM SCT030 OVC050